Date,TemperatureHighF,TemperatureAvgF,TemperatureLowF,DewpointHighF,DewpointAvgF,DewpointLowF,HumidityHigh,HumidityAvg,HumidityLow,PressureMaxIn,PressureMinIn,WindSpeedMaxMPH,WindSpeedAvgMPH,GustSpeedMaxMPH,PrecipitationSumIn
2013-9-1,84.2,74.0,69.4,72.6,69.6,66.7,93,86,65,29.93,29.81,18,2,18,0.11
2013-9-2,89.2,76.4,69.4,77.0,71.6,67.3,95,86,61,29.92,29.82,8,1,8,0.26
2013-9-3,84.9,75.0,67.2,71.6,66.8,61.4,95,78,49,30.04,29.88,12,2,12,0.00
2013-9-4,83.3,71.9,62.0,67.1,63.1,59.9,95,76,49,30.14,30.03,7,1,7,0.00
2013-9-5,83.6,70.7,59.5,66.7,62.6,57.5,95,78,48,30.18,30.11,10,1,10,0.00
2013-9-6,87.2,73.4,61.4,68.6,64.1,59.4,95,76,46,30.17,30.05,8,1,8,0.00
2013-9-7,90.3,75.4,62.8,71.4,66.0,60.3,95,76,44,30.10,29.96,12,1,12,0.00
2013-9-8,88.8,77.0,68.8,72.8,69.0,66.7,94,78,51,30.01,29.92,9,1,9,0.00
2013-9-9,92.8,78.2,70.8,75.5,71.1,68.4,94,80,49,30.05,29.97,15,2,15,0.11
2013-9-10,91.6,75.5,70.8,74.9,70.7,68.7,95,86,56,30.16,30.05,10,2,10,0.10
2013-9-11,88.5,76.4,68.7,75.5,71.0,67.2,96,85,58,30.20,30.07,9,1,9,0.01
2013-9-12,82.3,73.3,69.7,74.8,69.9,67.4,96,89,68,30.07,29.91,14,1,14,0.25
2013-9-13,75.5,68.4,59.2,69.3,58.1,50.5,95,72,48,30.04,29.93,18,4,18,0.01
2013-9-14,73.8,62.0,50.1,55.6,50.8,46.4,87,69,44,30.11,30.03,14,3,14,0.00
2013-9-15,83.1,66.6,52.4,64.9,57.6,49.8,94,76,45,30.13,30.05,12,2,12,0.00
2013-9-16,80.8,69.0,59.0,66.0,61.2,56.6,95,78,50,30.18,30.09,12,1,12,0.00
2013-9-17,80.0,69.7,62.2,67.8,63.6,59.6,92,82,63,30.20,30.08,7,1,7,0.00
2013-9-18,82.2,73.5,67.1,69.4,65.7,61.4,93,77,60,30.18,30.06,14,4,14,0.00
2013-9-19,85.8,74.7,67.4,70.1,66.6,63.3,89,77,56,30.15,29.99,12,2,12,0.00
2013-9-20,87.9,74.9,66.5,70.3,67.2,63.8,93,78,52,30.02,29.80,14,2,14,0.91
2013-9-21,70.8,65.7,57.3,68.4,59.1,53.2,95,81,56,29.89,29.72,26,5,26,0.84
2013-9-22,73.9,62.3,51.5,56.5,52.6,49.1,93,73,46,29.96,29.88,12,2,12,0.00
2013-9-23,76.9,63.5,51.0,62.0,56.1,48.8,94,78,52,30.02,29.93,9,1,9,0.00
2013-9-24,79.4,68.1,56.8,66.8,61.6,54.6,95,81,58,30.01,29.84,13,3,13,0.25
2013-9-25,72.3,66.5,63.2,67.0,63.7,61.1,95,91,79,29.89,29.81,7,1,7,0.07
2013-9-26,77.4,68.0,59.9,68.2,62.5,56.9,96,84,58,30.04,29.88,9,1,9,0.01
2013-9-27,79.9,65.7,53.5,66.8,58.0,51.4,96,79,45,30.14,30.03,6,1,6,0.00
2013-9-28,81.7,67.4,59.7,62.7,59.2,55.5,95,78,47,30.20,30.06,12,2,12,0.00
2013-9-29,73.7,64.9,59.7,62.1,59.1,56.9,93,82,61,30.12,30.01,12,2,12,0.02
2013-9-30,78.8,67.9,59.0,62.8,59.9,56.7,94,77,54,30.05,29.96,17,3,17,0.00